SKCG/CTG METAR and TAF weather

Enter ICAO airport designator
Station Type Date Time Source
SKCG METAR 2020/01/22 12:00 UTC NOAA

SKCG 221200Z 04004KT 9999 SCT015 27/24 A2986


Station Type Date Time Source
SKCG Decoded METAR 2020/01/22 12:00 UTC NOAA

Cartagena / Rafael Nunez, Colombia (SKCG) 10-27N 075-31W 12M
Jan 22, 2020 - 07:00 AM EST / 2020.01.22 1200 UTC
Wind: from the NE (040 degrees) at 5 MPH (4 KT):0
Visibility: greater than 7 mile(s):0
Sky conditions: partly cloudy
Temperature: 80 F (27 C)
Dew Point: 75 F (24 C)
Relative Humidity: 83%
Pressure (altimeter): 29.86 in. Hg (1011 hPa)
ob: SKCG 221200Z 04004KT 9999 SCT015 27/24 A2986
cycle: 12

Station Type Date Time Source
SKCG TAF 2020/01/22 12:45 UTC NOAA

TAF SKCG 221030Z 2212/2312 35007KT 9999 FEW018
TEMPO 2212/2213 7000 VCFG SCT010
TEMPO 2219/2222 6000 DZRA SCT015CB
TEMPO 2310/2312 6000 VCFG SCT012 TX32/2218Z TN24/2311Z

Example: see airport list